createdAt,value
2023-04-04T05:05:58.324Z,139791.47
2023-04-04T05:11:03.892Z,140133.25
2023-04-04T05:16:09.503Z,140399.44
2023-04-04T05:21:15.321Z,140600.78
2023-04-04T05:26:19.777Z,140618.00
2023-04-04T05:31:27.400Z,140686.78
2023-04-04T05:36:33.274Z,140264.44
2023-04-04T05:41:41.634Z,140546.72
2023-04-04T05:46:50.619Z,140769.13
2023-04-04T05:51:58.528Z,140877.28
2023-04-04T05:57:03.078Z,141081.50
2023-04-04T06:02:15.785Z,140974.47
2023-04-04T06:07:26.484Z,140930.19
2023-04-04T06:12:29.949Z,140750.72
2023-04-04T06:17:33.572Z,140909.25
2023-04-04T06:22:39.126Z,141340.09
2023-04-04T06:27:43.674Z,141234.16
2023-04-04T06:32:48.349Z,141213.22
2023-04-04T06:37:57.347Z,140988.00
2023-04-04T06:43:02.495Z,141232.91
2023-04-04T06:48:14.198Z,141236.63
2023-04-04T06:53:19.268Z,141549.56
2023-04-04T06:58:22.814Z,141345.03
2023-04-04T07:03:26.566Z,141292.03
2023-04-04T07:08:36.110Z,141611.22
2023-04-04T07:13:42.966Z,141569.31
2023-04-04T07:18:46.585Z,141553.25
2023-04-04T07:23:54.515Z,141287.13
2023-04-04T07:28:57.846Z,141088.94
2023-04-04T07:34:01.498Z,141080.28
2023-04-04T07:39:06.874Z,141292.03
2023-04-04T07:44:12.644Z,141231.69
2023-04-04T07:49:18.610Z,141175.06
2023-04-04T07:54:24.013Z,141176.28
2023-04-04T07:59:27.420Z,141034.78
2023-04-04T08:04:34.002Z,140975.72
2023-04-04T08:09:39.765Z,140994.13
2023-04-04T08:14:43.741Z,140970.75
2023-04-04T08:19:47.812Z,140909.25
2023-04-04T08:24:53.871Z,140900.66
2023-04-04T08:29:57.614Z,141001.56
2023-04-04T08:35:01.310Z,140922.81
2023-04-04T08:40:08.288Z,140933.88
2023-04-04T08:45:15.448Z,140951.09
2023-04-04T08:50:20.705Z,141063.06
2023-04-04T08:55:26.475Z,141139.31
2023-04-04T09:00:36.095Z,141106.13
2023-04-04T09:06:25.719Z,141079.06
2023-04-04T09:11:37.896Z,141117.25
2023-04-04T09:16:46.627Z,141221.81
2023-04-04T09:21:55.640Z,141246.44
2023-04-04T09:27:02.621Z,141211.97
2023-04-04T09:32:09.114Z,141234.16
2023-04-04T09:37:15.765Z,141296.97
2023-04-04T09:42:21.174Z,141354.84
2023-04-04T09:52:35.927Z,141239.06
2023-04-04T09:57:44.890Z,141099.97
2023-04-04T10:02:50.069Z,141145.50
2023-04-04T10:07:54.033Z,141218.13
2023-04-04T10:13:07.215Z,141400.47
2023-04-04T10:18:11.709Z,141385.66
2023-04-04T10:23:15.923Z,141256.31
2023-04-04T10:28:23.288Z,141247.69
2023-04-04T10:33:36.672Z,141230.47
2023-04-04T10:38:43.720Z,141202.13
2023-04-04T10:43:56.931Z,141412.78
2023-04-04T10:49:01.989Z,141507.66
2023-04-04T10:54:07.632Z,141404.16
2023-04-04T10:59:15.406Z,141502.69
2023-04-04T11:04:21.969Z,141479.38
2023-04-04T11:09:40.741Z,141428.81
2023-04-04T11:14:58.161Z,141468.25
2023-04-04T11:20:04.044Z,141489.22
2023-04-04T11:25:36.886Z,141513.81
2023-04-04T11:30:50.358Z,141550.81
2023-04-04T11:35:54.673Z,141656.88
2023-04-04T11:40:59.309Z,141653.19
2023-04-04T11:46:11.258Z,141619.88
2023-04-04T11:51:15.568Z,141538.50
2023-04-04T11:56:22.022Z,141613.69
2023-04-04T12:01:31.172Z,141655.63
2023-04-04T12:06:37.284Z,141616.13
2023-04-04T12:11:41.144Z,141532.28
2023-04-04T12:16:47.382Z,141533.53
2023-04-04T12:21:54.445Z,141688.94
2023-04-04T12:26:58.726Z,141791.38
2023-04-04T12:32:13.534Z,141653.19
2023-04-04T12:37:19.742Z,141550.81
2023-04-04T12:42:25.325Z,141654.41
2023-04-04T12:47:32.489Z,141717.31
2023-04-04T12:52:41.130Z,141788.91
2023-04-04T12:57:46.147Z,141788.91
2023-04-04T13:02:51.433Z,141739.53
2023-04-04T13:08:06.486Z,141685.25
2023-04-04T13:13:09.945Z,141634.66
2023-04-04T13:18:19.088Z,141670.41
2023-04-04T13:23:22.997Z,141763.00
2023-04-04T13:28:27.196Z,141871.63
2023-04-04T13:33:34.871Z,141877.78
2023-04-04T13:38:39.849Z,141740.78
2023-04-04T13:43:43.392Z,141717.31
2023-04-04T13:48:48.441Z,141666.72
2023-04-04T13:53:51.981Z,141684.00
2023-04-04T13:58:55.385Z,141755.56
2023-04-04T14:04:01.920Z,141821.00
2023-04-04T14:09:07.451Z,141819.78
2023-04-04T14:14:10.800Z,141707.47
2023-04-04T14:19:17.836Z,141548.34
2023-04-04T14:24:21.792Z,141581.63
2023-04-04T14:29:25.310Z,141654.41
2023-04-04T14:34:30.449Z,141695.09
2023-04-04T14:39:33.982Z,141667.97
2023-04-04T14:44:37.689Z,141681.56
2023-04-04T14:49:44.112Z,141707.47
2023-04-04T14:54:47.750Z,141700.03
2023-04-04T14:59:55.473Z,141738.31
2023-04-04T15:05:01.367Z,141653.19
2023-04-04T15:16:08.617Z,141649.50
2023-04-04T15:21:16.440Z,141608.75
2023-04-04T16:01:57.123Z,141589.00
2023-04-04T16:12:38.732Z,141633.44
2023-04-04T16:17:42.808Z,141585.31
2023-04-04T16:22:58.849Z,141549.56
2023-04-04T16:28:08.673Z,141495.34
2023-04-04T16:33:14.440Z,141483.06
2023-04-04T16:38:30.279Z,141443.59
2023-04-04T16:49:38.713Z,141449.78
2023-04-04T16:55:17.725Z,141393.03
2023-04-04T17:00:27.132Z,141386.88
2023-04-04T17:05:35.667Z,141362.25
2023-04-04T17:10:55.462Z,141356.09
2023-04-04T17:15:59.420Z,141399.25
2023-04-04T17:21:03.123Z,141363.47
2023-04-04T17:36:59.761Z,141280.94
2023-04-04T17:42:23.840Z,141253.88
2023-04-04T17:47:27.823Z,141226.78
2023-04-04T17:52:33.423Z,141191.03
2023-04-04T17:57:38.806Z,141111.03
2023-04-04T18:02:42.475Z,141081.50
2023-04-04T18:07:49.914Z,141049.50
2023-04-04T18:13:09.523Z,141048.28
2023-04-04T18:18:47.978Z,141058.16
2023-04-04T18:35:44.547Z,141043.38
2023-04-04T18:46:30.610Z,141018.75
2023-04-04T18:54:29.153Z,141015.06
2023-04-04T18:58:29.504Z,140974.47
2023-04-04T19:03:56.993Z,140974.47
2023-04-04T19:20:35.499Z,140905.56
2023-04-04T19:31:11.435Z,140884.66
2023-04-04T19:36:21.705Z,140833.00
2023-04-04T19:47:26.836Z,140783.84
2023-04-04T19:52:53.584Z,140753.19
2023-04-04T19:58:30.892Z,140710.13
2023-04-04T20:03:56.197Z,140692.91
2023-04-04T20:09:11.072Z,140633.94
2023-04-04T20:20:00.579Z,140604.44
2023-04-04T20:25:26.670Z,140565.16
2023-04-04T20:31:00.664Z,140565.16
2023-04-04T20:36:30.914Z,140556.56
2023-04-04T20:41:54.110Z,140519.69
2023-04-04T21:03:58.068Z,140459.59
2023-04-04T21:15:37.368Z,140405.56
2023-04-04T21:21:05.626Z,140390.88
2023-04-04T21:26:12.722Z,140376.13
2023-04-04T21:37:06.670Z,140319.66
2023-04-04T21:42:12.099Z,140320.88
